Time;durP1;ratioP1;P1;durP2;ratioP2;P2;SDS_P1;SDS_P2;PMS_P1;PMS_P2;Temp;Humidity;BMP_temperature;BMP_pressure;BME280_temperature;BME280_humidity;BME280_pressure;Samples;Min_cycle;Max_cycle;Signal;HPM_P1;HPM_P2
2023/05/29 00:00:37;;;;;;;4.13;3.20;;;19.50;99.90;;;;;;5052240;28;20210;-76
2023/05/29 00:03:04;;;;;;;7.10;3.67;;;19.50;99.90;;;;;;5052442;28;20246;-77
2023/05/29 00:05:31;;;;;;;6.95;4.55;;;19.50;99.90;;;;;;5052210;28;20206;-74
2023/05/29 00:07:58;;;;;;;4.70;3.28;;;19.40;99.90;;;;;;5052567;28;20238;-75
2023/05/29 00:10:27;;;;;;;12.18;3.63;;;19.40;99.90;;;;;;5052848;28;20242;-73
2023/05/29 00:12:55;;;;;;;7.90;3.58;;;19.40;99.90;;;;;;5052793;28;20210;-74
2023/05/29 00:15:22;;;;;;;4.05;3.30;;;19.40;99.90;;;;;;5051217;28;20226;-71
2023/05/29 00:17:50;;;;;;;4.97;3.67;;;19.40;99.90;;;;;;5051973;28;20206;-72
2023/05/29 00:20:18;;;;;;;6.50;2.85;;;19.40;99.90;;;;;;5052554;28;20211;-73
2023/05/29 00:22:45;;;;;;;5.63;3.40;;;19.30;99.90;;;;;;5051780;28;20733;-73
2023/05/29 00:25:11;;;;;;;5.47;3.63;;;19.30;99.90;;;;;;5051145;28;20238;-75
2023/05/29 00:27:40;;;;;;;6.85;4.18;;;19.20;99.90;;;;;;5051114;28;20238;-75
2023/05/29 00:30:08;;;;;;;8.07;3.55;;;19.20;99.90;;;;;;5052018;28;20285;-74
2023/05/29 00:32:35;;;;;;;5.43;3.35;;;19.20;99.90;;;;;;5051780;28;20209;-73
2023/05/29 00:35:03;;;;;;;6.30;3.67;;;19.10;99.90;;;;;;5052182;28;20210;-73
2023/05/29 00:37:30;;;;;;;9.02;3.72;;;19.10;99.90;;;;;;5051629;28;20202;-71
2023/05/29 00:39:57;;;;;;;6.45;3.35;;;19.00;99.90;;;;;;5052053;28;20599;-72
2023/05/29 00:42:24;;;;;;;9.18;5.07;;;18.90;99.90;;;;;;5051764;28;20242;-73
2023/05/29 00:44:52;;;;;;;4.93;2.95;;;18.80;99.90;;;;;;5051805;28;20234;-75
2023/05/29 00:47:19;;;;;;;10.70;5.40;;;18.80;99.90;;;;;;5051571;28;20253;-71
2023/05/29 00:49:46;;;;;;;5.13;3.10;;;18.60;99.90;;;;;;5051521;28;20253;-72
2023/05/29 00:52:14;;;;;;;4.53;3.22;;;18.50;99.90;;;;;;5051991;28;20242;-72
2023/05/29 00:54:44;;;;;;;5.78;3.08;;;18.60;99.90;;;;;;5051109;28;20246;-73
2023/05/29 00:57:11;;;;;;;7.82;4.32;;;18.70;99.90;;;;;;5051600;28;20656;-71
2023/05/29 00:59:38;;;;;;;6.07;3.10;;;18.70;99.90;;;;;;5051014;28;20242;-72
2023/05/29 01:02:07;;;;;;;4.70;3.08;;;18.80;99.90;;;;;;5051385;28;20250;-73
2023/05/29 01:04:34;;;;;;;5.68;4.00;;;18.70;99.90;;;;;;5051119;28;20269;-72
2023/05/29 01:07:02;;;;;;;3.67;3.38;;;18.80;99.90;;;;;;5051524;28;20246;-72
2023/05/29 01:09:30;;;;;;;5.60;3.63;;;18.80;99.90;;;;;;5050932;28;20210;-72
2023/05/29 01:12:04;;;;;;;8.00;3.70;;;18.70;99.90;;;;;;5051632;28;20211;-72
2023/05/29 01:14:40;;;;;;;6.82;3.45;;;18.70;99.90;;;;;;5050929;28;20233;-71
2023/05/29 01:17:19;;;;;;;6.68;3.75;;;18.60;99.90;;;;;;5051099;28;20620;-72
2023/05/29 01:20:06;;;;;;;4.15;3.17;;;18.50;99.90;;;;;;5050520;28;20210;-71
2023/05/29 01:22:59;;;;;;;4.00;3.15;;;18.60;99.90;;;;;;5050802;28;20207;-72
2023/05/29 01:25:36;;;;;;;4.85;3.30;;;18.60;99.90;;;;;;5051488;28;20231;-73
2023/05/29 01:28:07;;;;;;;5.47;2.97;;;18.60;99.90;;;;;;5050954;28;20210;-72
2023/05/29 01:30:35;;;;;;;5.40;3.00;;;18.50;99.90;;;;;;5050546;28;20202;-75
2023/05/29 01:33:03;;;;;;;5.38;3.67;;;18.50;99.90;;;;;;5051231;28;20308;-75
2023/05/29 01:35:30;;;;;;;5.38;3.33;;;18.50;99.90;;;;;;5050292;28;20231;-71
2023/05/29 01:37:57;;;;;;;3.88;3.33;;;18.50;99.90;;;;;;5050860;28;20702;-72
2023/05/29 01:40:24;;;;;;;6.25;3.65;;;18.50;99.90;;;;;;5051165;28;20242;-74
2023/05/29 01:42:51;;;;;;;3.38;2.70;;;18.40;99.90;;;;;;5050520;28;20239;-72
2023/05/29 01:45:20;;;;;;;6.78;3.63;;;18.30;99.90;;;;;;5050473;28;20238;-72
2023/05/29 01:47:48;;;;;;;6.10;3.63;;;18.30;99.90;;;;;;5050803;28;20245;-71
2023/05/29 01:50:18;;;;;;;4.93;3.85;;;18.20;99.90;;;;;;5051062;28;20246;-72
2023/05/29 01:52:45;;;;;;;8.40;4.07;;;18.20;99.90;;;;;;5050305;28;20694;-73
2023/05/29 01:55:12;;;;;;;6.10;5.00;;;18.20;99.90;;;;;;5050538;28;20253;-76
2023/05/29 01:57:39;;;;;;;7.20;4.47;;;18.30;99.90;;;;;;5049864;28;20258;-73
2023/05/29 02:00:09;;;;;;;7.30;5.65;;;18.30;99.90;;;;;;5050372;28;20253;-72
2023/05/29 02:02:39;;;;;;;8.73;4.43;;;18.20;99.90;;;;;;5049860;28;20213;-75
2023/05/29 02:05:08;;;;;;;12.10;7.28;;;18.20;99.90;;;;;;5050614;28;20645;-71
2023/05/29 02:07:36;;;;;;;4.35;3.55;;;18.30;99.90;;;;;;5049828;28;20640;-72
2023/05/29 02:10:03;;;;;;;5.00;4.50;;;18.30;99.90;;;;;;5050498;28;20219;-73
2023/05/29 02:12:30;;;;;;;7.22;3.97;;;18.30;99.90;;;;;;5050081;28;20257;-74
2023/05/29 02:14:57;;;;;;;7.30;3.75;;;18.20;99.90;;;;;;5050265;28;20713;-71
2023/05/29 02:17:24;;;;;;;7.93;4.28;;;18.20;99.90;;;;;;5050808;28;20242;-76
2023/05/29 02:19:53;;;;;;;6.22;3.92;;;18.20;99.90;;;;;;5050073;28;20299;-74
2023/05/29 02:22:20;;;;;;;6.15;4.13;;;18.20;99.90;;;;;;5050265;28;20242;-75
2023/05/29 02:24:46;;;;;;;4.50;3.72;;;18.20;99.90;;;;;;5050063;28;20644;-73
2023/05/29 02:27:13;;;;;;;5.18;3.13;;;18.10;99.90;;;;;;5050496;28;20241;-73
2023/05/29 02:29:40;;;;;;;10.18;4.57;;;18.10;99.90;;;;;;5049694;28;20238;-75
2023/05/29 02:32:07;;;;;;;6.43;3.97;;;18.10;99.90;;;;;;5050267;28;20705;-74
2023/05/29 02:34:34;;;;;;;11.32;7.00;;;18.20;99.90;;;;;;5049617;28;20203;-76
2023/05/29 02:37:03;;;;;;;7.47;4.57;;;18.10;99.90;;;;;;5049772;28;20240;-76
2023/05/29 02:39:30;;;;;;;4.65;4.05;;;18.10;99.90;;;;;;5052967;28;20203;-74
2023/05/29 02:41:57;;;;;;;5.05;3.53;;;18.00;99.90;;;;;;5053957;28;20238;-74
2023/05/29 02:44:24;;;;;;;11.55;4.97;;;18.00;99.90;;;;;;5054315;28;20210;-75
2023/05/29 02:46:51;;;;;;;5.43;3.70;;;18.00;99.90;;;;;;5054101;28;20238;-75
2023/05/29 02:49:18;;;;;;;4.38;3.95;;;18.00;99.90;;;;;;5054151;28;20242;-73
2023/05/29 02:51:45;;;;;;;6.60;4.05;;;18.00;99.90;;;;;;5053538;28;20253;-76
2023/05/29 02:54:13;;;;;;;10.77;5.40;;;18.00;99.90;;;;;;5053932;28;20290;-73
2023/05/29 02:56:40;;;;;;;7.55;4.07;;;18.00;99.90;;;;;;5053614;28;20614;-75
2023/05/29 02:59:07;;;;;;;7.03;4.47;;;18.00;99.90;;;;;;5053631;28;20245;-77
2023/05/29 03:01:34;;;;;;;5.40;3.70;;;17.90;99.90;;;;;;5053402;28;20353;-75
2023/05/29 03:04:01;;;;;;;7.28;4.18;;;17.90;99.90;;;;;;5053455;28;20294;-74
2023/05/29 03:06:28;;;;;;;6.65;4.28;;;17.90;99.90;;;;;;5053790;28;20245;-74
2023/05/29 03:08:55;;;;;;;11.57;4.57;;;17.80;99.90;;;;;;5054256;28;20261;-75
2023/05/29 03:11:24;;;;;;;8.68;4.75;;;17.80;99.90;;;;;;5053992;28;20199;-75
2023/05/29 03:13:51;;;;;;;10.57;4.30;;;17.60;99.90;;;;;;5053650;28;20206;-73
2023/05/29 03:16:18;;;;;;;8.65;4.47;;;17.60;99.90;;;;;;5053430;28;20269;-73
2023/05/29 03:18:48;;;;;;;9.40;4.68;;;17.60;99.90;;;;;;5053092;28;20246;-73
2023/05/29 03:21:16;;;;;;;6.63;4.13;;;17.60;99.90;;;;;;5053306;28;20642;-75
2023/05/29 03:23:43;;;;;;;7.50;4.53;;;17.60;99.90;;;;;;5053179;28;20686;-75
2023/05/29 03:26:10;;;;;;;5.90;3.88;;;17.60;99.90;;;;;;5053205;28;20311;-74
2023/05/29 03:28:38;;;;;;;6.45;4.07;;;17.60;99.90;;;;;;5053001;28;20225;-74
2023/05/29 03:31:05;;;;;;;10.63;4.75;;;17.60;99.90;;;;;;5053107;28;20241;-73
2023/05/29 03:33:32;;;;;;;8.55;4.78;;;17.60;99.90;;;;;;5053137;28;20233;-76
2023/05/29 03:35:59;;;;;;;9.35;4.47;;;17.50;99.90;;;;;;5053408;28;20246;-72
2023/05/29 03:38:26;;;;;;;4.32;3.58;;;17.50;99.90;;;;;;5053204;28;20243;-71
2023/05/29 03:40:53;;;;;;;8.68;4.60;;;17.50;99.90;;;;;;5052934;28;20210;-75
2023/05/29 03:43:20;;;;;;;8.57;6.15;;;17.50;99.90;;;;;;5053039;28;20744;-73
2023/05/29 03:45:48;;;;;;;6.55;4.55;;;17.40;99.90;;;;;;5052533;28;20242;-72
2023/05/29 03:48:16;;;;;;;7.25;5.35;;;17.40;99.90;;;;;;5053192;28;20216;-73
2023/05/29 03:50:42;;;;;;;7.50;4.50;;;17.40;99.90;;;;;;5051946;28;20688;-75
2023/05/29 03:53:09;;;;;;;6.57;4.43;;;17.30;99.90;;;;;;5052982;28;20234;-72
2023/05/29 03:55:36;;;;;;;7.60;4.85;;;17.20;99.90;;;;;;5052124;28;20238;-73
2023/05/29 03:58:03;;;;;;;5.10;3.83;;;17.30;99.90;;;;;;5052709;28;20619;-75
2023/05/29 04:00:30;;;;;;;7.80;5.30;;;17.20;99.90;;;;;;5052206;28;20242;-74
2023/05/29 04:02:58;;;;;;;6.22;4.45;;;17.10;99.90;;;;;;5052651;28;20254;-76
2023/05/29 04:05:26;;;;;;;7.50;5.15;;;17.10;99.90;;;;;;5053213;28;20211;-71
2023/05/29 04:07:53;;;;;;;8.98;4.50;;;17.00;99.90;;;;;;5052395;28;20294;-75
2023/05/29 04:10:20;;;;;;;5.68;4.68;;;16.90;99.90;;;;;;5052274;28;20242;-72
2023/05/29 04:12:47;;;;;;;6.63;4.20;;;16.90;99.90;;;;;;5051809;28;20238;-72
2023/05/29 04:15:14;;;;;;;11.40;4.70;;;16.80;99.90;;;;;;5052487;28;20242;-71
2023/05/29 04:17:41;;;;;;;7.00;4.60;;;16.70;99.90;;;;;;5052011;28;20266;-73
2023/05/29 04:20:10;;;;;;;6.18;4.03;;;16.70;99.90;;;;;;5052436;28;20251;-72
2023/05/29 04:22:37;;;;;;;10.95;5.70;;;16.70;99.90;;;;;;5051969;28;20245;-75
2023/05/29 04:25:05;;;;;;;6.22;4.32;;;16.70;99.90;;;;;;5052477;28;20242;-70
2023/05/29 04:27:36;;;;;;;4.90;4.40;;;16.60;99.90;;;;;;5051867;28;20207;-71
2023/05/29 04:30:04;;;;;;;5.93;4.53;;;16.70;99.90;;;;;;5052228;28;20280;-72
2023/05/29 04:32:32;;;;;;;7.22;4.15;;;16.70;99.90;;;;;;5052016;28;20256;-74
2023/05/29 04:35:02;;;;;;;8.45;5.10;;;16.70;99.90;;;;;;5051843;28;20211;-72
2023/05/29 04:37:37;;;;;;;6.28;4.15;;;16.70;99.90;;;;;;5051629;28;20262;-71
2023/05/29 04:40:08;;;;;;;9.68;5.18;;;16.60;99.90;;;;;;5051760;28;20210;-72
2023/05/29 04:42:35;;;;;;;6.68;4.63;;;16.70;99.90;;;;;;5051712;28;20217;-75
2023/05/29 04:45:04;;;;;;;7.32;5.45;;;16.60;99.90;;;;;;5052159;28;20210;-75
2023/05/29 04:47:32;;;;;;;7.47;4.75;;;16.60;99.90;;;;;;5051388;28;20288;-73
2023/05/29 04:50:00;;;;;;;8.38;4.70;;;16.50;99.90;;;;;;5051830;28;20222;-75
2023/05/29 04:52:27;;;;;;;10.57;5.32;;;16.60;99.90;;;;;;5051534;28;20209;-74
2023/05/29 04:54:56;;;;;;;7.72;5.68;;;16.60;99.90;;;;;;5051671;28;20241;-73
2023/05/29 04:57:23;;;;;;;6.28;4.72;;;16.60;99.90;;;;;;5051835;28;20577;-74
2023/05/29 04:59:50;;;;;;;9.48;4.85;;;16.70;99.90;;;;;;5050985;28;20234;-74
2023/05/29 05:02:17;;;;;;;8.73;4.78;;;16.70;99.90;;;;;;5050814;28;20222;-72
2023/05/29 05:04:45;;;;;;;8.45;5.75;;;16.70;99.90;;;;;;5051058;28;20252;-72
2023/05/29 05:07:12;;;;;;;6.97;4.25;;;16.60;99.90;;;;;;5051501;28;20207;-74
2023/05/29 05:09:39;;;;;;;10.05;3.97;;;16.80;99.90;;;;;;5050599;28;20238;-71
2023/05/29 05:12:07;;;;;;;12.00;4.63;;;16.90;99.90;;;;;;5051645;28;20592;-72
2023/05/29 05:14:35;;;;;;;10.63;5.85;;;17.00;99.90;;;;;;5050911;28;20235;-70
2023/05/29 05:17:02;;;;;;;8.15;4.00;;;16.90;99.90;;;;;;5051266;28;20274;-74
2023/05/29 05:19:28;;;;;;;8.07;4.60;;;16.90;99.90;;;;;;5050827;28;20264;-71
2023/05/29 05:21:55;;;;;;;6.53;4.43;;;17.00;99.90;;;;;;5051514;28;20209;-72
2023/05/29 05:24:22;;;;;;;10.00;5.43;;;17.10;99.90;;;;;;5051539;28;20238;-71
2023/05/29 05:26:49;;;;;;;7.30;4.40;;;17.00;99.90;;;;;;5050904;28;20211;-73
2023/05/29 05:29:18;;;;;;;11.20;5.60;;;17.00;99.90;;;;;;5051250;28;20608;-72
2023/05/29 05:31:45;;;;;;;7.55;4.53;;;16.90;99.90;;;;;;5050621;28;20198;-76
2023/05/29 05:34:12;;;;;;;7.13;4.65;;;17.10;99.90;;;;;;5050797;28;20666;-74
2023/05/29 05:36:39;;;;;;;9.32;4.25;;;17.10;99.90;;;;;;5050506;28;20249;-75
2023/05/29 05:39:06;;;;;;;6.38;4.35;;;17.20;99.90;;;;;;5044904;28;20701;-72
2023/05/29 05:41:33;;;;;;;7.60;4.38;;;17.30;99.90;;;;;;5050389;28;20574;-72
2023/05/29 05:44:00;;;;;;;7.10;4.63;;;17.30;99.90;;;;;;5050828;28;20246;-73
2023/05/29 05:46:28;;;;;;;6.38;4.38;;;17.30;99.90;;;;;;5050463;28;20210;-71
2023/05/29 05:48:56;;;;;;;10.30;4.65;;;17.40;99.90;;;;;;5051063;28;20211;-72
2023/05/29 05:51:24;;;;;;;7.57;4.70;;;17.50;99.90;;;;;;5050855;28;20213;-71
2023/05/29 05:53:50;;;;;;;5.93;4.88;;;17.60;99.90;;;;;;5050659;28;20235;-70
2023/05/29 05:56:17;;;;;;;9.23;4.93;;;17.70;99.90;;;;;;5050784;28;20242;-71
2023/05/29 05:58:44;;;;;;;11.63;4.63;;;17.70;99.90;;;;;;5050023;28;20760;-71
2023/05/29 06:01:11;;;;;;;11.35;6.18;;;17.80;99.90;;;;;;5050433;28;20233;-75
2023/05/29 06:03:40;;;;;;;6.47;5.88;;;17.90;99.90;;;;;;5049854;28;20238;-71
2023/05/29 06:06:08;;;;;;;7.53;4.75;;;17.90;99.90;;;;;;5050575;28;20234;-75
2023/05/29 06:08:35;;;;;;;9.50;5.00;;;17.90;99.90;;;;;;5050128;28;20297;-73
2023/05/29 06:11:02;;;;;;;11.90;4.38;;;18.00;99.90;;;;;;5050571;28;20591;-73
2023/05/29 06:13:29;;;;;;;6.70;4.07;;;18.10;99.90;;;;;;5049781;28;20678;-75
2023/05/29 06:15:56;;;;;;;4.13;3.67;;;18.10;99.90;;;;;;5050711;28;20257;-77
2023/05/29 06:18:23;;;;;;;5.95;4.05;;;18.30;99.90;;;;;;5050773;28;20234;-72
2023/05/29 06:20:51;;;;;;;4.25;3.85;;;18.30;99.90;;;;;;5049610;28;20230;-71
2023/05/29 06:23:18;;;;;;;8.57;4.25;;;18.30;99.90;;;;;;5050192;28;20729;-71
2023/05/29 06:25:45;;;;;;;7.53;3.80;;;18.40;99.90;;;;;;5049795;28;20203;-72
2023/05/29 06:28:12;;;;;;;5.32;3.53;;;18.50;99.90;;;;;;5050265;28;20614;-71
2023/05/29 06:30:40;;;;;;;13.27;5.00;;;18.50;99.90;;;;;;5049903;28;20238;-72
2023/05/29 06:33:07;;;;;;;8.10;4.00;;;18.70;99.90;;;;;;5050489;28;20246;-71
2023/05/29 06:35:34;;;;;;;7.18;4.20;;;18.70;99.90;;;;;;5049076;28;20742;-71
2023/05/29 06:38:02;;;;;;;7.72;3.53;;;18.70;99.90;;;;;;5050084;28;20276;-71
2023/05/29 06:40:29;;;;;;;7.15;3.83;;;18.70;99.90;;;;;;5049591;28;20682;-71
2023/05/29 06:42:56;;;;;;;5.93;4.25;;;18.90;99.90;;;;;;5050217;28;20292;-71
2023/05/29 06:45:23;;;;;;;4.88;3.63;;;18.90;99.90;;;;;;5050547;28;20238;-71
2023/05/29 06:47:50;;;;;;;8.52;4.32;;;19.10;99.90;;;;;;5049759;28;20301;-72
2023/05/29 06:50:17;;;;;;;9.75;5.57;;;19.20;99.90;;;;;;5049910;28;20249;-72
2023/05/29 06:52:43;;;;;;;5.22;3.97;;;19.20;99.90;;;;;;5049784;28;20234;-71
2023/05/29 06:55:12;;;;;;;7.47;4.40;;;19.40;99.90;;;;;;5050021;28;20246;-71
2023/05/29 06:57:39;;;;;;;5.32;3.83;;;19.50;99.90;;;;;;5049333;28;20262;-72
2023/05/29 07:00:07;;;;;;;13.90;5.80;;;19.60;99.90;;;;;;5050124;28;20234;-71
2023/05/29 07:02:34;;;;;;;5.28;3.78;;;19.60;99.90;;;;;;5049502;28;20210;-71
2023/05/29 07:05:01;;;;;;;15.68;5.18;;;19.80;99.90;;;;;;5049668;28;20712;-71
2023/05/29 07:07:28;;;;;;;6.88;3.63;;;19.80;99.90;;;;;;5049957;28;20211;-71
2023/05/29 07:09:55;;;;;;;5.88;3.95;;;20.00;99.90;;;;;;5050239;28;20234;-71
2023/05/29 07:12:23;;;;;;;6.63;4.47;;;20.20;99.90;;;;;;5050247;28;20241;-73
2023/05/29 07:14:50;;;;;;;9.23;4.45;;;20.40;99.90;;;;;;5049628;28;20209;-72
2023/05/29 07:17:17;;;;;;;8.15;4.40;;;20.20;99.90;;;;;;5050045;28;20215;-73
2023/05/29 07:19:44;;;;;;;5.72;3.58;;;20.10;99.90;;;;;;5048961;28;20243;-71
2023/05/29 07:22:11;;;;;;;6.43;4.38;;;20.20;99.90;;;;;;5049791;28;20211;-71
2023/05/29 07:24:38;;;;;;;4.20;3.08;;;20.30;99.90;;;;;;5050542;28;20206;-72
2023/05/29 07:27:06;;;;;;;6.15;3.47;;;20.80;99.90;;;;;;5053442;28;20238;-76
2023/05/29 07:29:34;;;;;;;7.00;3.92;;;20.80;99.90;;;;;;5052742;28;20215;-73
2023/05/29 07:32:01;;;;;;;4.13;3.65;;;21.00;99.90;;;;;;5053427;28;20233;-74
2023/05/29 07:34:28;;;;;;;6.55;3.72;;;20.80;99.90;;;;;;5052993;28;20245;-72
2023/05/29 07:36:59;;;;;;;5.45;4.18;;;20.70;99.90;;;;;;5053156;28;20296;-72
2023/05/29 07:39:26;;;;;;;5.78;3.83;;;20.80;99.90;;;;;;5053142;28;20235;-71
2023/05/29 07:41:53;;;;;;;7.32;4.63;;;21.00;99.90;;;;;;5052950;28;20583;-72
2023/05/29 07:44:20;;;;;;;8.07;3.47;;;20.90;99.90;;;;;;5053296;28;20245;-74
2023/05/29 07:46:49;;;;;;;7.88;3.17;;;20.90;99.90;;;;;;5052867;28;20245;-74
2023/05/29 07:49:16;;;;;;;8.63;3.45;;;20.90;99.90;;;;;;5052663;28;20661;-72
2023/05/29 07:51:43;;;;;;;9.45;4.15;;;21.10;99.90;;;;;;5052458;28;20207;-73
2023/05/29 07:54:10;;;;;;;6.65;4.10;;;21.20;99.90;;;;;;5052758;28;20223;-73
2023/05/29 07:56:38;;;;;;;6.35;3.88;;;21.20;99.90;;;;;;5052715;28;20241;-77
2023/05/29 07:59:05;;;;;;;7.60;3.55;;;21.30;99.90;;;;;;5052726;28;20253;-72
2023/05/29 08:01:32;;;;;;;4.50;3.95;;;21.90;99.90;;;;;;5052138;28;20217;-72
2023/05/29 08:04:00;;;;;;;9.50;4.63;;;22.00;99.90;;;;;;5052443;28;20210;-72
2023/05/29 08:06:27;;;;;;;5.65;3.15;;;21.80;99.90;;;;;;5052867;28;20214;-71
2023/05/29 08:08:54;;;;;;;6.90;3.05;;;21.80;99.90;;;;;;5053121;28;20285;-74
2023/05/29 08:11:23;;;;;;;4.20;2.83;;;21.80;99.90;;;;;;5052686;28;20213;-72
2023/05/29 08:13:49;;;;;;;4.55;2.88;;;21.80;99.90;;;;;;5052146;28;20238;-77
2023/05/29 08:16:16;;;;;;;4.95;3.15;;;21.90;99.90;;;;;;5052113;28;20243;-76
2023/05/29 08:18:44;;;;;;;3.63;2.78;;;22.20;99.90;;;;;;5052019;28;20239;-73
2023/05/29 08:21:12;;;;;;;6.10;2.92;;;22.40;99.90;;;;;;5052392;28;20207;-73
2023/05/29 08:23:39;;;;;;;4.43;3.45;;;22.70;99.90;;;;;;5051989;28;20666;-72
2023/05/29 08:26:07;;;;;;;5.47;3.70;;;22.70;99.90;;;;;;5052362;28;20245;-72
2023/05/29 08:28:34;;;;;;;6.82;3.45;;;22.70;99.90;;;;;;5051912;28;20573;-71
2023/05/29 08:31:00;;;;;;;7.32;3.17;;;22.60;99.90;;;;;;5051964;28;20234;-74
2023/05/29 08:33:28;;;;;;;4.05;3.28;;;22.60;99.90;;;;;;5051789;28;20234;-72
2023/05/29 08:35:55;;;;;;;4.07;2.80;;;22.80;99.90;;;;;;5051529;28;20206;-72
2023/05/29 08:38:25;;;;;;;3.83;3.22;;;23.00;99.90;;;;;;5052559;28;20231;-77
2023/05/29 08:40:52;;;;;;;3.38;2.95;;;23.10;99.90;;;;;;5051805;28;20207;-71
2023/05/29 08:43:23;;;;;;;7.32;4.22;;;23.30;99.90;;;;;;5051895;28;20242;-72
2023/05/29 08:45:54;;;;;;;3.05;2.80;;;23.40;99.90;;;;;;5051224;28;20235;-73
2023/05/29 08:48:24;;;;;;;7.88;2.80;;;23.70;99.90;;;;;;5052233;28;20576;-74
2023/05/29 08:50:54;;;;;;;6.72;3.97;;;25.00;99.90;;;;;;5051559;28;20670;-73
2023/05/29 08:53:24;;;;;;;4.97;2.97;;;26.60;99.90;;;;;;5052005;28;20670;-72
2023/05/29 08:55:55;;;;;;;3.67;3.30;;;25.70;99.90;;;;;;5051430;28;20203;-73
2023/05/29 08:58:23;;;;;;;6.50;3.35;;;25.30;99.90;;;;;;5051897;28;20237;-72
2023/05/29 09:00:51;;;;;;;7.80;4.57;;;25.40;99.90;;;;;;5050857;28;20581;-72
2023/05/29 09:03:20;;;;;;;4.00;3.47;;;25.90;99.90;;;;;;5051591;28;20573;-72
2023/05/29 09:05:47;;;;;;;6.55;3.90;;;26.10;99.90;;;;;;5051122;28;20260;-72
2023/05/29 09:08:14;;;;;;;7.03;5.38;;;25.80;99.90;;;;;;5051633;28;20222;-75
2023/05/29 09:10:44;;;;;;;7.85;4.03;;;25.70;99.90;;;;;;5050868;28;20213;-74
2023/05/29 09:13:13;;;;;;;5.85;4.32;;;25.30;99.90;;;;;;5051588;28;20202;-73
2023/05/29 09:15:42;;;;;;;6.72;3.67;;;25.10;99.90;;;;;;5050965;28;20284;-73
2023/05/29 09:18:10;;;;;;;6.18;3.80;;;25.50;99.90;;;;;;5051168;28;20230;-73
2023/05/29 09:20:37;;;;;;;5.18;4.10;;;25.80;99.90;;;;;;5050985;28;20238;-73
2023/05/29 09:23:05;;;;;;;4.97;3.70;;;26.10;99.90;;;;;;5051068;28;20218;-73
2023/05/29 09:25:33;;;;;;;5.72;4.07;;;26.30;99.90;;;;;;5050933;28;20579;-73
2023/05/29 09:28:03;;;;;;;8.00;4.25;;;26.60;99.90;;;;;;5050825;28;20625;-73
2023/05/29 09:30:36;;;;;;;6.45;4.70;;;28.60;99.90;;;;;;5050547;28;20211;-73
2023/05/29 09:33:03;;;;;;;10.30;4.25;;;31.70;99.90;;;;;;5050876;28;20243;-72
2023/05/29 09:35:34;;;;;;;4.78;4.15;;;34.80;99.90;;;;;;5050483;28;20207;-72
2023/05/29 09:38:02;;;;;;;9.25;3.90;;;35.30;99.90;;;;;;5050756;28;20241;-73
2023/05/29 09:40:32;;;;;;;4.13;3.30;;;34.70;99.90;;;;;;5050759;28;20228;-72
2023/05/29 09:43:07;;;;;;;6.10;3.28;;;36.30;99.90;;;;;;5050734;28;20581;-72
2023/05/29 09:45:39;;;;;;;5.55;3.55;;;38.00;99.90;;;;;;5050480;28;20249;-72
2023/05/29 09:48:07;;;;;;;4.10;3.38;;;36.80;99.90;;;;;;5050404;28;20666;-78
2023/05/29 09:50:34;;;;;;;6.63;3.83;;;35.70;99.90;;;;;;5050137;28;20216;-74
2023/05/29 09:53:02;;;;;;;4.43;4.03;;;35.90;99.90;;;;;;5050829;28;20689;-74
2023/05/29 09:55:31;;;;;;;4.85;3.90;;;35.70;99.90;;;;;;5050432;28;20202;-73
2023/05/29 09:57:59;;;;;;;5.35;3.65;;;36.30;99.90;;;;;;5050494;28;20210;-74
2023/05/29 10:00:28;;;;;;;6.15;3.30;;;36.60;99.90;;;;;;5050539;28;20229;-73
2023/05/29 10:02:55;;;;;;;5.40;4.18;;;37.30;99.90;;;;;;5050678;28;20214;-74
2023/05/29 10:05:22;;;;;;;5.28;4.30;;;37.80;99.90;;;;;;5050981;28;20202;-73
2023/05/29 10:07:54;;;;;;;7.43;4.45;;;38.90;99.90;;;;;;5049809;28;20308;-74
2023/05/29 10:10:25;;;;;;;6.35;3.80;;;40.50;99.90;;;;;;5050876;28;20659;-73
2023/05/29 10:12:52;;;;;;;6.03;4.10;;;41.60;99.90;;;;;;5049888;28;20230;-73
2023/05/29 10:15:21;;;;;;;10.68;4.75;;;39.70;99.90;;;;;;5050316;28;20253;-73
2023/05/29 10:18:00;;;;;;;4.95;3.70;;;39.30;99.90;;;;;;5049986;28;20210;-74
2023/05/29 10:20:29;;;;;;;6.57;3.42;;;38.40;99.90;;;;;;5050501;28;20246;-73
2023/05/29 10:22:59;;;;;;;5.72;4.38;;;37.80;99.90;;;;;;5050290;28;20257;-72
2023/05/29 10:25:29;;;;;;;5.85;4.00;;;37.40;99.90;;;;;;5050502;28;20649;-73
2023/05/29 10:27:57;;;;;;;5.57;3.38;;;38.90;99.90;;;;;;5049792;28;20238;-73
2023/05/29 10:30:32;;;;;;;4.70;3.95;;;37.60;99.90;;;;;;5050860;28;20253;-73
2023/05/29 10:33:31;;;;;;;7.07;4.78;;;33.30;99.90;;;;;;5050236;28;20213;-74
2023/05/29 10:36:06;;;;;;;5.43;3.63;;;30.00;99.90;;;;;;5049805;28;20217;-74
2023/05/29 10:38:33;;;;;;;10.40;4.25;;;27.70;99.90;;;;;;5049743;28;20652;-76
2023/05/29 10:41:29;;;;;;;8.27;4.40;;;27.30;99.90;;;;;;5050048;28;20237;-73
2023/05/29 10:43:56;;;;;;;4.32;3.13;;;27.20;99.90;;;;;;5050175;28;20233;-73
2023/05/29 10:47:03;;;;;;;5.43;4.00;;;26.90;99.90;;;;;;5050354;28;20685;-73
2023/05/29 10:49:32;;;;;;;5.40;3.47;;;26.80;99.90;;;;;;5037681;28;20209;-73
2023/05/29 10:52:00;;;;;;;7.57;3.22;;;26.60;99.90;;;;;;5050000;28;20210;-72
2023/05/29 10:54:27;;;;;;;6.88;3.20;;;26.90;99.90;;;;;;5050128;28;20678;-75
2023/05/29 10:56:57;;;;;;;4.57;3.58;;;26.80;99.90;;;;;;5050130;28;20245;-77
2023/05/29 10:59:27;;;;;;;3.90;3.50;;;26.90;99.90;;;;;;5051431;28;20270;-73
2023/05/29 11:01:54;;;;;;;5.05;3.97;;;27.00;99.90;;;;;;5054110;28;20233;-74
2023/05/29 11:04:30;;;;;;;6.45;3.75;;;26.70;99.90;;;;;;5054235;28;20234;-73
2023/05/29 11:06:59;;;;;;;4.53;3.17;;;27.00;99.90;;;;;;5053763;28;20202;-74
2023/05/29 11:09:31;;;;;;;4.72;3.25;;;27.30;99.90;;;;;;5054024;28;20211;-73
2023/05/29 11:12:33;;;;;;;5.47;3.08;;;27.40;99.90;;;;;;5053410;28;20225;-74
2023/05/29 11:15:04;;;;;;;5.22;3.67;;;27.70;99.90;;;;;;5053702;28;20289;-73
2023/05/29 11:17:45;;;;;;;5.70;3.90;;;27.50;99.90;;;;;;5053364;28;20213;-73
2023/05/29 11:20:25;;;;;;;5.32;3.88;;;27.00;99.90;;;;;;5053235;28;20241;-73
2023/05/29 11:23:02;;;;;;;3.67;3.13;;;26.60;99.90;;;;;;5053630;28;20234;-73
2023/05/29 11:25:33;;;;;;;5.80;3.72;;;26.70;99.90;;;;;;5052958;28;20219;-74
2023/05/29 11:28:00;;;;;;;4.78;3.40;;;27.10;99.90;;;;;;5053524;28;20218;-73
2023/05/29 11:30:27;;;;;;;6.53;3.95;;;26.50;99.90;;;;;;5053114;28;20663;-72
2023/05/29 11:32:56;;;;;;;5.10;3.33;;;26.40;99.90;;;;;;5053713;28;20245;-74
2023/05/29 11:35:23;;;;;;;5.43;3.78;;;26.60;99.90;;;;;;5053482;28;20207;-72
2023/05/29 11:37:51;;;;;;;4.38;3.60;;;27.10;99.90;;;;;;5052779;28;20238;-73
2023/05/29 11:40:19;;;;;;;4.60;3.38;;;27.20;99.90;;;;;;5052939;28;20227;-74
2023/05/29 11:42:48;;;;;;;7.03;4.43;;;27.30;99.90;;;;;;5052715;28;20246;-73
2023/05/29 11:45:16;;;;;;;7.50;4.07;;;27.40;99.90;;;;;;5053090;28;20206;-74
2023/05/29 11:47:56;;;;;;;8.52;3.83;;;27.60;99.90;;;;;;5052935;28;20206;-73
2023/05/29 11:50:25;;;;;;;4.78;3.05;;;27.60;99.90;;;;;;5053346;28;20211;-73
2023/05/29 11:52:52;;;;;;;5.20;3.20;;;27.90;99.90;;;;;;5052981;28;20213;-73
2023/05/29 11:55:22;;;;;;;5.13;3.42;;;27.80;99.90;;;;;;5052615;28;20207;-76
2023/05/29 11:57:51;;;;;;;6.15;3.05;;;27.80;99.90;;;;;;5052882;28;20704;-73
2023/05/29 12:00:20;;;;;;;5.63;3.38;;;27.50;99.90;;;;;;5052942;28;20265;-72
2023/05/29 12:02:48;;;;;;;3.45;3.10;;;27.20;99.90;;;;;;5057164;28;20295;-73
2023/05/29 12:05:18;;;;;;;7.70;3.17;;;27.20;99.90;;;;;;5061590;28;20249;-73
2023/05/29 12:07:49;;;;;;;5.20;3.10;;;27.30;99.90;;;;;;5052321;28;20213;-72
2023/05/29 12:10:18;;;;;;;4.65;3.10;;;27.50;99.90;;;;;;5052544;28;20309;-72
2023/05/29 12:12:52;;;;;;;7.60;3.95;;;27.60;99.90;;;;;;5052105;28;20253;-73
2023/05/29 12:15:21;;;;;;;6.93;3.90;;;27.50;99.90;;;;;;5052550;28;20225;-73
2023/05/29 12:17:49;;;;;;;6.63;4.20;;;27.70;99.90;;;;;;5052064;28;20215;-75
2023/05/29 12:20:16;;;;;;;5.03;3.83;;;27.70;99.90;;;;;;5052385;28;20300;-74
2023/05/29 12:22:45;;;;;;;7.32;3.45;;;27.60;99.90;;;;;;5051794;28;20645;-72
2023/05/29 12:25:12;;;;;;;6.15;4.05;;;27.60;99.90;;;;;;5052310;28;20691;-75
2023/05/29 12:27:43;;;;;;;5.15;3.40;;;27.50;99.90;;;;;;5052070;28;20203;-73
2023/05/29 12:30:14;;;;;;;5.20;3.75;;;27.30;99.90;;;;;;5052260;28;20243;-74
2023/05/29 12:32:43;;;;;;;9.27;4.03;;;27.40;99.90;;;;;;5051827;28;20670;-73
2023/05/29 12:35:14;;;;;;;7.40;3.75;;;27.70;99.90;;;;;;5053198;28;20686;-75
2023/05/29 12:37:49;;;;;;;3.95;3.55;;;27.70;99.90;;;;;;5063311;28;20249;-73
2023/05/29 12:40:17;;;;;;;5.70;3.80;;;27.60;99.90;;;;;;5051997;28;20238;-74
2023/05/29 12:42:44;;;;;;;3.75;3.17;;;27.30;99.90;;;;;;5051816;28;20207;-74
2023/05/29 12:45:13;;;;;;;8.32;3.75;;;27.60;99.90;;;;;;5051843;28;20235;-73
2023/05/29 12:47:46;;;;;;;6.47;4.05;;;27.40;99.90;;;;;;5051648;28;20256;-73
2023/05/29 12:50:21;;;;;;;5.72;4.38;;;27.80;99.90;;;;;;5052028;28;20207;-75
2023/05/29 12:52:57;;;;;;;7.97;3.90;;;28.00;99.90;;;;;;5038217;28;20234;-73